To NAV CANADA Home Page Login to a new session Search on AWWS site Feedback and Comments Disclaimer Vers la page française équivalente Tips FAQ What's new on the site To the Forecasts and Observations / NOTAM section To "File a Flight Plan" website Publications and other links Update of the User's profile FIC Telephone Numbers My Weather Data Folder Route Weather Data Regional Weather Data Local Weather Data To the Forecasts and Observations / NOTAM section
Request Generated 03/29/2015 at 20:46:20 UTC . Weather information available at that time is displayed.

METAR/TAF

SCHEFFERVILLE/QC    (show WxCam)

METAR CYKL 292000Z AUTO 27012G21KT 9SM OVC055 M02/M13 A2942 RMK
SLP996=
METAR CYKL 291900Z AUTO 25016KT 9SM OVC049 M02/M11 A2943 RMK SLP999=
METAR CYKL 291800Z AUTO 27014G23KT 9SM CLR M03/M11 A2943 RMK SLP003=

TAF CYKL 291938Z 2920/3008 25015G25KT P6SM SCT012 OVC030 TEMPO
2920/3003 BKN012 OVC030
BECMG 3000/3002 24012KT
FM300300 24012KT P6SM SCT012 OVC030 TEMPO 3003/3008 5SM -SHSN
BKN012 OVC080
RMK FCST BASED ON AUTO OBS. NXT FCST BY 300200Z=
Your time UTC time
Weather data provided by Environment Canada and NAV CANADA